Time;durP1;ratioP1;P1;durP2;ratioP2;P2;SDS_P1;SDS_P2;PMS_P1;PMS_P2;Temp;Humidity;BMP_temperature;BMP_pressure;BME280_temperature;BME280_humidity;BME280_pressure;Samples;Min_cycle;Max_cycle;Signal;HPM_P1;HPM_P2
2021/05/26 00:02:25;;;;;;;27.70;17.38;;;17.10;78.20;;;;;;4978727;28;20023;-86
2021/05/26 00:04:51;;;;;;;23.30;16.00;;;17.10;78.40;;;;;;4987879;28;20057;-86
2021/05/26 00:07:17;;;;;;;24.10;16.40;;;17.10;78.50;;;;;;4987589;28;20022;-87
2021/05/26 00:09:43;;;;;;;23.27;16.35;;;17.00;79.20;;;;;;4986145;28;20466;-87
2021/05/26 00:12:10;;;;;;;23.60;16.10;;;17.00;78.70;;;;;;4978433;28;20034;-87
2021/05/26 00:14:36;;;;;;;27.35;16.70;;;17.00;78.80;;;;;;4977979;28;20055;-87
2021/05/26 00:17:03;;;;;;;22.77;15.57;;;17.00;78.90;;;;;;4978443;28;20086;-86
2021/05/26 00:19:29;;;;;;;23.58;14.23;;;17.00;79.00;;;;;;4975183;28;20027;-77
2021/05/26 00:21:55;;;;;;;23.42;14.73;;;17.00;79.10;;;;;;4976281;28;20026;-77
2021/05/26 00:24:20;;;;;;;21.55;14.43;;;17.00;79.10;;;;;;4976221;28;20473;-77
2021/05/26 00:26:46;;;;;;;15.77;11.88;;;17.00;79.00;;;;;;4976303;28;20058;-77
2021/05/26 00:29:13;;;;;;;18.33;11.85;;;17.00;79.10;;;;;;4975830;28;20421;-77
2021/05/26 00:31:39;;;;;;;16.52;12.25;;;17.00;79.20;;;;;;4976043;28;20023;-76
2021/05/26 00:34:05;;;;;;;16.95;11.85;;;17.00;79.20;;;;;;4976610;28;20114;-77
2021/05/26 00:36:31;;;;;;;20.35;12.88;;;17.00;79.20;;;;;;4976273;28;20102;-76
2021/05/26 00:38:57;;;;;;;13.13;10.10;;;17.00;79.20;;;;;;4975940;28;20027;-76
2021/05/26 00:41:29;;;;;;;18.58;10.70;;;17.00;79.20;;;;;;4975789;28;20086;-76
2021/05/26 00:43:56;;;;;;;11.90;8.80;;;17.00;79.30;;;;;;4975854;28;20041;-76
2021/05/26 00:46:21;;;;;;;10.35;8.75;;;17.00;79.20;;;;;;4976338;28;20034;-86
2021/05/26 00:48:47;;;;;;;13.18;8.63;;;17.10;79.10;;;;;;4987360;28;20026;-85
2021/05/26 00:51:13;;;;;;;9.98;8.23;;;17.10;79.00;;;;;;4986170;28;20026;-86
2021/05/26 00:53:39;;;;;;;13.20;8.15;;;17.10;78.90;;;;;;4989413;28;20007;-85
2021/05/26 00:56:06;;;;;;;11.63;8.93;;;17.10;78.90;;;;;;4989361;28;20101;-86
2021/05/26 00:58:32;;;;;;;11.88;8.20;;;17.10;78.90;;;;;;5008672;28;20110;-85
2021/05/26 01:00:58;;;;;;;9.55;8.52;;;17.10;78.80;;;;;;4978301;28;20030;-77
2021/05/26 01:03:24;;;;;;;11.75;8.88;;;17.10;78.80;;;;;;4974525;28;20126;-76
2021/05/26 01:05:49;;;;;;;11.90;8.45;;;17.10;78.80;;;;;;4975465;28;20030;-76
2021/05/26 01:08:15;;;;;;;9.65;8.23;;;17.00;78.80;;;;;;4974097;28;20421;-76
2021/05/26 01:10:41;;;;;;;10.68;8.20;;;17.00;79.00;;;;;;4974966;28;20090;-77
2021/05/26 01:13:08;;;;;;;12.10;8.27;;;17.00;79.10;;;;;;5006992;28;20373;-85
2021/05/26 01:15:34;;;;;;;15.38;8.73;;;17.00;79.30;;;;;;5008608;28;20023;-86
2021/05/26 01:18:26;;;;;;;9.68;8.00;;;16.90;79.50;;;;;;4976974;28;20026;-85
2021/05/26 01:20:54;;;;;;;9.20;7.57;;;16.90;79.70;;;;;;4976752;28;20035;-85
2021/05/26 01:23:20;;;;;;;10.90;8.27;;;16.80;79.70;;;;;;4977145;28;20034;-85
2021/05/26 01:26:06;;;;;;;9.55;8.05;;;16.80;79.90;;;;;;4976802;28;20045;-87
2021/05/26 01:28:33;;;;;;;8.55;7.30;;;16.80;80.00;;;;;;4976803;28;20548;-86
2021/05/26 01:31:00;;;;;;;12.60;8.05;;;16.70;80.20;;;;;;4976647;28;20027;-86
2021/05/26 01:33:26;;;;;;;9.20;8.00;;;16.70;80.40;;;;;;4977221;28;20406;-86
2021/05/26 01:35:53;;;;;;;10.82;7.90;;;16.60;80.70;;;;;;4977072;28;20031;-86
2021/05/26 01:38:21;;;;;;;12.15;8.20;;;16.60;81.00;;;;;;4976671;28;20042;-86
2021/05/26 01:40:49;;;;;;;12.23;7.88;;;16.50;82.00;;;;;;4976557;28;20023;-86
2021/05/26 01:43:14;;;;;;;10.63;8.02;;;16.50;81.60;;;;;;4976371;28;20074;-85
2021/05/26 01:45:41;;;;;;;16.52;8.30;;;16.40;81.80;;;;;;4982124;28;20046;-85
2021/05/26 01:48:07;;;;;;;11.80;8.13;;;16.40;82.10;;;;;;4999757;28;20026;-85
2021/05/26 01:50:34;;;;;;;15.68;8.30;;;16.40;82.20;;;;;;4978386;28;20037;-86
2021/05/26 01:53:04;;;;;;;13.35;8.20;;;16.40;82.50;;;;;;4976690;28;20042;-87
2021/05/26 01:55:31;;;;;;;8.48;7.40;;;16.30;82.70;;;;;;4976537;28;20026;-87
2021/05/26 01:57:57;;;;;;;13.02;7.88;;;16.30;82.90;;;;;;4976284;28;20030;-86
2021/05/26 02:00:23;;;;;;;9.30;7.95;;;16.30;83.00;;;;;;4976586;28;20026;-86
2021/05/26 02:02:48;;;;;;;11.32;7.63;;;16.30;83.30;;;;;;4975318;28;20027;-78
2021/05/26 02:05:15;;;;;;;8.65;7.75;;;16.30;83.40;;;;;;4974515;28;20018;-77
2021/05/26 02:07:41;;;;;;;11.30;7.75;;;16.30;83.60;;;;;;4974377;28;20034;-78
2021/05/26 02:10:11;;;;;;;13.40;7.22;;;16.40;83.70;;;;;;4974171;28;20027;-77
2021/05/26 02:12:40;;;;;;;13.68;7.72;;;16.40;83.70;;;;;;4974077;28;20034;-77
2021/05/26 02:15:09;;;;;;;10.50;7.43;;;16.50;83.90;;;;;;4974636;28;20034;-77
2021/05/26 02:17:35;;;;;;;9.02;6.80;;;16.60;84.00;;;;;;4974806;28;20015;-78
2021/05/26 02:20:00;;;;;;;12.02;7.20;;;16.90;84.00;;;;;;4973989;28;20042;-77
2021/05/26 02:22:26;;;;;;;11.57;7.18;;;17.10;83.50;;;;;;4975210;28;20094;-77
2021/05/26 02:24:52;;;;;;;9.65;7.40;;;17.40;82.80;;;;;;4994515;28;20037;-85
2021/05/26 02:27:18;;;;;;;9.55;6.47;;;17.70;82.00;;;;;;4978599;28;20023;-85
2021/05/26 02:29:44;;;;;;;8.70;6.65;;;18.10;81.10;;;;;;4992876;28;20062;-87
2021/05/26 02:32:10;;;;;;;8.02;6.53;;;18.50;80.20;;;;;;4980510;28;20457;-87
2021/05/26 02:34:37;;;;;;;8.15;6.40;;;18.90;79.00;;;;;;4976157;28;20482;-86
2021/05/26 02:37:03;;;;;;;10.07;6.78;;;19.40;77.70;;;;;;4975972;28;20492;-87
2021/05/26 02:39:29;;;;;;;9.13;6.60;;;19.90;76.20;;;;;;4975739;28;20022;-87
2021/05/26 02:41:55;;;;;;;9.57;6.55;;;20.40;74.60;;;;;;5006867;28;20041;-86
2021/05/26 02:44:21;;;;;;;7.35;6.07;;;21.00;72.90;;;;;;4975953;28;20035;-86
2021/05/26 02:46:47;;;;;;;8.73;6.38;;;21.50;71.40;;;;;;4975516;28;20038;-88
2021/05/26 02:49:14;;;;;;;10.68;6.82;;;22.00;70.00;;;;;;4975778;28;20021;-88
2021/05/26 02:51:40;;;;;;;8.55;6.43;;;22.60;69.00;;;;;;4978052;28;20034;-88
2021/05/26 02:54:06;;;;;;;10.63;6.53;;;23.10;66.70;;;;;;4992925;28;20050;-88
2021/05/26 02:56:33;;;;;;;10.02;6.32;;;23.70;65.00;;;;;;4978170;28;20421;-88
2021/05/26 02:58:59;;;;;;;12.52;6.53;;;24.30;63.50;;;;;;5006891;28;20026;-88
2021/05/26 03:01:25;;;;;;;10.00;5.90;;;24.80;62.20;;;;;;5020984;28;20393;-88
2021/05/26 03:03:51;;;;;;;12.35;6.95;;;25.40;60.90;;;;;;4993135;28;20026;-87
2021/05/26 03:06:17;;;;;;;8.57;6.50;;;26.00;59.50;;;;;;4990166;28;20062;-88
2021/05/26 03:08:42;;;;;;;10.93;6.03;;;26.50;58.40;;;;;;4977082;28;20022;-88
2021/05/26 03:11:08;;;;;;;8.00;5.45;;;27.00;57.10;;;;;;4975431;28;20031;-88
2021/05/26 03:13:34;;;;;;;10.80;5.30;;;27.50;55.80;;;;;;5006171;28;20026;-88
2021/05/26 03:16:00;;;;;;;7.43;5.40;;;27.90;54.60;;;;;;4974940;28;20049;-88
2021/05/26 03:18:26;;;;;;;6.97;5.20;;;28.40;53.50;;;;;;4974913;28;20027;-89
2021/05/26 03:20:52;;;;;;;8.40;5.35;;;28.90;52.60;;;;;;4974835;28;20030;-88
2021/05/26 03:23:19;;;;;;;8.48;5.07;;;29.40;51.70;;;;;;4974268;28;20026;-79
2021/05/26 03:25:48;;;;;;;7.88;5.35;;;29.80;50.60;;;;;;4972883;28;20023;-79
2021/05/26 03:28:18;;;;;;;13.13;5.00;;;30.20;50.00;;;;;;4973126;28;20050;-79
2021/05/26 03:30:45;;;;;;;8.07;4.70;;;30.70;49.00;;;;;;4972847;28;20112;-78
2021/05/26 03:33:13;;;;;;;5.47;4.75;;;31.20;48.30;;;;;;4975749;28;20031;-79
2021/05/26 03:35:40;;;;;;;8.23;5.25;;;31.60;47.50;;;;;;4976757;28;20035;-78
2021/05/26 03:38:06;;;;;;;6.40;4.70;;;32.10;46.60;;;;;;4976802;28;20023;-78
2021/05/26 03:40:33;;;;;;;9.10;5.28;;;32.50;46.60;;;;;;5007962;28;20471;-78
2021/05/26 03:42:59;;;;;;;5.55;5.00;;;32.90;45.40;;;;;;4976831;28;20441;-79
2021/05/26 03:45:25;;;;;;;7.68;4.72;;;33.30;44.60;;;;;;4977585;28;20024;-79
2021/05/26 03:47:51;;;;;;;10.90;5.68;;;33.60;44.20;;;;;;4978703;28;20495;-89
2021/05/26 03:50:16;;;;;;;10.52;5.20;;;34.10;43.70;;;;;;4979840;28;20035;-90
2021/05/26 03:52:47;;;;;;;12.10;4.93;;;34.50;43.20;;;;;;4980666;28;20481;-89
2021/05/26 03:55:16;;;;;;;14.73;6.20;;;34.90;42.40;;;;;;4983322;28;20023;-89
2021/05/26 03:57:42;;;;;;;12.27;5.00;;;35.30;42.10;;;;;;4998357;28;20193;-89
2021/05/26 04:00:11;;;;;;;10.35;4.90;;;35.60;41.50;;;;;;5030206;28;20035;-89
2021/05/26 04:02:37;;;;;;;10.52;4.45;;;36.00;41.00;;;;;;4990510;28;20045;-89
2021/05/26 04:05:04;;;;;;;5.82;4.30;;;36.30;40.50;;;;;;4982150;28;20042;-89
2021/05/26 04:07:30;;;;;;;9.68;4.70;;;36.60;40.10;;;;;;4980606;28;20354;-89
2021/05/26 04:09:56;;;;;;;6.32;4.40;;;36.90;39.70;;;;;;4978937;28;20054;-88
2021/05/26 04:12:24;;;;;;;11.00;4.53;;;37.20;39.50;;;;;;4977987;28;20098;-78
2021/05/26 04:14:51;;;;;;;8.80;4.68;;;37.40;39.10;;;;;;4976792;28;20521;-78
2021/05/26 04:17:16;;;;;;;8.18;4.50;;;37.70;38.80;;;;;;4975879;28;20027;-78
2021/05/26 04:19:42;;;;;;;13.27;5.25;;;38.10;38.60;;;;;;5007361;28;20053;-78
2021/05/26 04:22:08;;;;;;;12.15;4.97;;;38.30;38.20;;;;;;4976675;28;20031;-81
2021/05/26 04:24:33;;;;;;;15.00;5.65;;;38.60;37.80;;;;;;4976014;28;20171;-76
2021/05/26 04:26:59;;;;;;;10.73;4.80;;;38.80;37.60;;;;;;5011405;28;20596;-86
2021/05/26 04:29:25;;;;;;;12.40;5.00;;;39.00;37.40;;;;;;4978591;28;20042;-87
2021/05/26 04:31:56;;;;;;;19.08;5.40;;;39.40;37.10;;;;;;4977650;28;20039;-87
2021/05/26 04:34:21;;;;;;;;;;;39.80;37.00;;;;;;5009674;28;20027;-87
2021/05/26 04:36:50;;;;;;;5.68;3.90;;;40.00;37.50;;;;;;4977171;28;19906;-90
2021/05/26 04:39:16;;;;;;;6.80;5.28;;;40.40;36.70;;;;;;4978344;28;20374;-85
2021/05/26 04:41:42;;;;;;;15.93;5.20;;;40.60;36.00;;;;;;4977608;28;20434;-86
2021/05/26 04:44:10;;;;;;;10.02;4.35;;;40.80;35.90;;;;;;4977826;28;20057;-87
2021/05/26 04:46:36;;;;;;;10.35;4.97;;;41.00;35.40;;;;;;4987246;28;20038;-86
2021/05/26 04:49:03;;;;;;;14.73;5.55;;;41.30;35.30;;;;;;4997740;28;20042;-86
2021/05/26 04:51:28;;;;;;;16.42;6.30;;;41.40;35.10;;;;;;4992385;28;20030;-88
2021/05/26 04:53:54;;;;;;;18.40;5.57;;;41.50;35.00;;;;;;5008850;28;20023;-87
2021/05/26 04:56:20;;;;;;;17.33;5.47;;;41.70;34.90;;;;;;5008901;28;20492;-86
2021/05/26 04:58:46;;;;;;;8.18;5.47;;;42.00;34.80;;;;;;4977078;28;20019;-86
2021/05/26 05:01:11;;;;;;;15.32;5.55;;;42.30;34.30;;;;;;4991939;28;20034;-87
2021/05/26 05:03:37;;;;;;;20.95;6.78;;;42.50;34.00;;;;;;4987428;28;20453;-88
2021/05/26 05:06:03;;;;;;;12.75;5.53;;;42.60;34.00;;;;;;4976138;28;20034;-78
2021/05/26 05:08:29;;;;;;;11.63;4.85;;;42.80;33.60;;;;;;5005881;28;20030;-79
2021/05/26 05:10:55;;;;;;;11.27;4.63;;;42.90;33.40;;;;;;4975247;28;20109;-86
2021/05/26 05:13:22;;;;;;;6.65;4.30;;;43.10;33.30;;;;;;4976954;28;20041;-85
2021/05/26 05:15:48;;;;;;;16.23;5.00;;;43.40;32.90;;;;;;4976022;28;20039;-85
2021/05/26 05:18:13;;;;;;;9.68;4.15;;;43.40;32.80;;;;;;4976446;28;20033;-78
2021/05/26 05:20:39;;;;;;;8.70;4.35;;;43.50;32.80;;;;;;4974364;28;20046;-78
2021/05/26 05:23:05;;;;;;;4.85;4.28;;;43.60;32.80;;;;;;4974136;28;20145;-79
2021/05/26 05:25:31;;;;;;;6.95;3.97;;;43.70;32.90;;;;;;4974166;28;20027;-78
2021/05/26 05:27:57;;;;;;;8.45;5.47;;;43.90;32.70;;;;;;4973794;28;20493;-80
2021/05/26 05:30:23;;;;;;;7.20;3.92;;;44.10;32.60;;;;;;4973723;28;20113;-79
2021/05/26 05:32:49;;;;;;;12.52;3.85;;;44.20;32.30;;;;;;5005283;28;20042;-79
2021/05/26 05:35:15;;;;;;;12.55;4.60;;;44.20;32.30;;;;;;4973921;28;20031;-78
2021/05/26 05:37:41;;;;;;;8.98;4.10;;;44.40;32.60;;;;;;4977209;28;20029;-79
2021/05/26 05:40:08;;;;;;;14.32;4.90;;;44.40;32.70;;;;;;4978883;28;20023;-79
2021/05/26 05:42:34;;;;;;;9.15;4.40;;;44.50;32.50;;;;;;4976527;28;20042;-78
2021/05/26 05:45:00;;;;;;;7.57;4.47;;;44.50;32.40;;;;;;4973949;28;20027;-78
2021/05/26 05:47:25;;;;;;;4.70;3.60;;;44.70;32.20;;;;;;4974311;28;20033;-78
2021/05/26 05:49:51;;;;;;;6.47;3.58;;;44.80;31.90;;;;;;4974597;28;20058;-79
2021/05/26 05:52:17;;;;;;;7.03;3.90;;;44.90;31.90;;;;;;4974582;28;20026;-78
2021/05/26 05:54:44;;;;;;;14.68;4.00;;;44.90;31.60;;;;;;4973146;28;20034;-79
2021/05/26 05:57:10;;;;;;;6.90;3.40;;;45.00;31.50;;;;;;5005176;28;20030;-78
2021/05/26 05:59:36;;;;;;;16.35;3.88;;;45.10;31.40;;;;;;4973533;28;20049;-78
2021/05/26 06:02:02;;;;;;;4.15;3.30;;;45.30;31.10;;;;;;4973540;28;20051;-78
2021/05/26 06:04:28;;;;;;;10.15;3.10;;;45.30;30.30;;;;;;4973756;28;20039;-78
2021/05/26 06:06:54;;;;;;;5.07;2.85;;;45.50;30.20;;;;;;4973998;28;20097;-75
2021/05/26 06:09:21;;;;;;;4.65;3.20;;;45.50;29.90;;;;;;4973337;28;20528;-75
2021/05/26 06:11:49;;;;;;;5.78;3.20;;;45.60;29.70;;;;;;4973201;28;20122;-76
2021/05/26 06:14:18;;;;;;;5.10;3.25;;;45.70;29.70;;;;;;4972258;28;20038;-75
2021/05/26 06:16:44;;;;;;;11.65;4.07;;;45.60;29.70;;;;;;4973740;28;20482;-75
2021/05/26 06:19:10;;;;;;;5.25;3.15;;;45.70;29.90;;;;;;5004561;28;20091;-76
2021/05/26 06:21:35;;;;;;;7.35;3.65;;;45.70;29.60;;;;;;4973380;28;20031;-76
2021/05/26 06:24:02;;;;;;;10.52;3.42;;;45.50;29.50;;;;;;4973083;28;20030;-76
2021/05/26 06:26:31;;;;;;;6.00;3.72;;;45.60;29.60;;;;;;4973096;28;20022;-75
2021/05/26 06:28:59;;;;;;;12.10;3.50;;;45.50;29.60;;;;;;4972720;28;20181;-77
2021/05/26 06:31:25;;;;;;;5.15;3.05;;;45.50;29.90;;;;;;4972878;28;20363;-78
2021/05/26 06:33:50;;;;;;;4.55;3.50;;;45.50;29.70;;;;;;4973618;28;20034;-76
2021/05/26 06:36:16;;;;;;;6.75;3.45;;;45.50;29.60;;;;;;4973259;28;20041;-76
2021/05/26 06:38:42;;;;;;;4.53;3.22;;;45.40;29.80;;;;;;4972884;28;20038;-76
2021/05/26 06:41:08;;;;;;;6.32;3.92;;;45.40;29.80;;;;;;4973063;28;20031;-76
2021/05/26 06:43:33;;;;;;;5.75;3.47;;;45.40;30.00;;;;;;4973041;28;20111;-76
2021/05/26 06:45:59;;;;;;;7.07;3.72;;;45.30;30.00;;;;;;4973036;28;20022;-76
2021/05/26 06:48:25;;;;;;;7.32;3.53;;;45.30;30.30;;;;;;5004152;28;20050;-76
2021/05/26 06:50:51;;;;;;;6.22;3.10;;;45.20;30.30;;;;;;4972862;28;20026;-75
2021/05/26 06:53:17;;;;;;;7.03;4.05;;;45.20;30.40;;;;;;4977672;28;20078;-84
2021/05/26 06:55:43;;;;;;;6.82;3.50;;;45.10;30.30;;;;;;4978284;28;20109;-85
2021/05/26 06:58:09;;;;;;;5.35;3.80;;;45.00;30.50;;;;;;4975441;28;20081;-84
2021/05/26 07:00:35;;;;;;;8.30;3.72;;;44.90;30.30;;;;;;4978190;28;20054;-84
2021/05/26 07:03:04;;;;;;;4.68;3.30;;;44.60;30.60;;;;;;4982255;28;20029;-84
2021/05/26 07:05:31;;;;;;;5.17;3.53;;;44.50;30.70;;;;;;4978061;28;20027;-83
2021/05/26 07:07:56;;;;;;;7.18;3.80;;;44.10;31.40;;;;;;4974551;28;20273;-75
2021/05/26 07:10:22;;;;;;;4.50;4.10;;;43.90;30.80;;;;;;4971478;28;20022;-74
2021/05/26 07:12:50;;;;;;;5.78;4.05;;;43.70;30.80;;;;;;4971955;28;20031;-75
2021/05/26 07:15:16;;;;;;;4.80;4.07;;;43.60;30.90;;;;;;4972166;28;20482;-74
2021/05/26 07:17:42;;;;;;;6.35;3.88;;;43.40;31.00;;;;;;5002485;28;20039;-75
2021/05/26 07:20:08;;;;;;;7.85;4.13;;;43.10;31.10;;;;;;4971480;28;20080;-75
2021/05/26 07:22:34;;;;;;;4.45;4.03;;;42.90;31.30;;;;;;4971939;28;20149;-75
2021/05/26 07:25:00;;;;;;;5.57;4.35;;;42.80;31.50;;;;;;4972501;28;20094;-76
2021/05/26 07:27:26;;;;;;;5.65;3.97;;;42.70;31.40;;;;;;5003959;28;20030;-75
2021/05/26 07:29:51;;;;;;;7.53;4.40;;;42.40;31.50;;;;;;4972262;28;20093;-75
2021/05/26 07:32:17;;;;;;;5.28;4.38;;;42.10;31.70;;;;;;4972754;28;20097;-74
2021/05/26 07:34:43;;;;;;;12.60;7.03;;;41.90;31.90;;;;;;4972068;28;20059;-74
2021/05/26 07:37:09;;;;;;;4.85;4.38;;;41.50;31.90;;;;;;4972200;28;20050;-75
2021/05/26 07:39:36;;;;;;;6.10;4.22;;;41.20;32.30;;;;;;4972592;28;20034;-84
2021/05/26 07:42:07;;;;;;;5.38;4.10;;;41.00;32.70;;;;;;4973135;28;20389;-75
2021/05/26 07:44:33;;;;;;;9.45;4.50;;;40.80;32.80;;;;;;4972056;28;20102;-76
2021/05/26 07:46:59;;;;;;;7.75;4.20;;;40.50;33.30;;;;;;4972232;28;20393;-75
2021/05/26 07:49:26;;;;;;;5.35;4.03;;;40.30;33.50;;;;;;4972515;28;20027;-76
2021/05/26 07:51:54;;;;;;;6.65;4.53;;;40.10;33.70;;;;;;4972273;28;20026;-76
2021/05/26 07:54:22;;;;;;;6.93;5.20;;;39.90;34.00;;;;;;4972221;28;20026;-76
2021/05/26 07:56:49;;;;;;;7.75;5.93;;;39.50;34.20;;;;;;4972187;28;20023;-75
2021/05/26 07:59:14;;;;;;;5.97;4.43;;;38.90;34.10;;;;;;4972149;28;20393;-75
2021/05/26 08:01:42;;;;;;;7.35;5.28;;;38.30;34.70;;;;;;4971928;28;20027;-75
2021/05/26 08:04:08;;;;;;;14.02;5.00;;;38.00;35.40;;;;;;4972190;28;20473;-75
2021/05/26 08:06:34;;;;;;;8.65;4.40;;;37.80;35.90;;;;;;4972027;28;20026;-75
2021/05/26 08:09:00;;;;;;;6.45;4.68;;;37.60;36.20;;;;;;4972012;28;20031;-78
2021/05/26 08:11:25;;;;;;;6.88;4.40;;;37.30;36.60;;;;;;5003357;28;20019;-75
2021/05/26 08:13:52;;;;;;;5.40;4.70;;;37.10;37.20;;;;;;4972074;28;20042;-76
2021/05/26 08:16:18;;;;;;;5.35;4.40;;;36.80;37.10;;;;;;5003502;28;20105;-75
2021/05/26 08:18:44;;;;;;;5.53;4.57;;;36.50;37.50;;;;;;5005278;28;20077;-76
2021/05/26 08:21:11;;;;;;;6.63;4.82;;;36.20;37.90;;;;;;4977030;28;20034;-84
2021/05/26 08:23:37;;;;;;;10.65;4.90;;;35.60;38.10;;;;;;5007661;28;20030;-84
2021/05/26 08:26:03;;;;;;;5.88;4.68;;;35.20;38.80;;;;;;4976856;28;20505;-84
2021/05/26 08:28:29;;;;;;;6.78;4.43;;;34.90;39.20;;;;;;4976363;28;20027;-84
2021/05/26 08:30:56;;;;;;;9.05;5.50;;;34.70;39.30;;;;;;5007573;28;20030;-84
2021/05/26 08:33:21;;;;;;;7.95;4.75;;;34.40;39.90;;;;;;5010905;28;20034;-84
2021/05/26 08:35:48;;;;;;;10.73;5.10;;;34.00;40.30;;;;;;4986182;28;20369;-85
2021/05/26 08:38:14;;;;;;;12.68;5.70;;;33.70;40.70;;;;;;4989081;28;20065;-85
2021/05/26 08:40:40;;;;;;;11.25;5.10;;;33.20;40.80;;;;;;4989816;28;20031;-84
2021/05/26 08:43:06;;;;;;;6.88;5.00;;;32.90;41.40;;;;;;4989650;28;20117;-85
2021/05/26 08:45:32;;;;;;;8.45;5.20;;;32.80;42.10;;;;;;5023080;28;20026;-84
2021/05/26 08:47:59;;;;;;;6.57;4.82;;;32.80;42.80;;;;;;4984534;28;20023;-82
2021/05/26 08:50:25;;;;;;;8.88;5.13;;;33.00;42.40;;;;;;4982964;28;20635;-84
2021/05/26 08:52:51;;;;;;;5.05;4.60;;;33.20;41.90;;;;;;4977468;28;20035;-84
2021/05/26 08:55:17;;;;;;;6.97;4.80;;;33.40;41.50;;;;;;4976248;28;20358;-84
2021/05/26 08:57:43;;;;;;;6.68;5.20;;;33.60;41.20;;;;;;4977674;28;20042;-83
2021/05/26 09:00:10;;;;;;;4.90;4.43;;;33.30;40.80;;;;;;4976325;28;20035;-84
2021/05/26 09:02:36;;;;;;;9.48;5.13;;;33.10;41.00;;;;;;4991435;28;20026;-84
2021/05/26 09:05:03;;;;;;;6.28;4.82;;;33.10;41.30;;;;;;4976585;28;20023;-84
2021/05/26 09:07:32;;;;;;;6.07;4.00;;;33.20;41.30;;;;;;4975840;28;20014;-84
2021/05/26 09:10:06;;;;;;;9.95;4.50;;;33.10;40.90;;;;;;4975769;28;20015;-84
2021/05/26 09:12:41;;;;;;;11.57;4.55;;;33.00;40.70;;;;;;4975673;28;20027;-81
2021/05/26 09:15:15;;;;;;;9.10;5.57;;;33.10;40.40;;;;;;4975112;28;20034;-83
2021/05/26 09:17:45;;;;;;;5.72;4.90;;;33.00;40.20;;;;;;4974826;28;20031;-82
2021/05/26 09:20:17;;;;;;;9.63;5.28;;;32.90;40.90;;;;;;4974831;28;20035;-83
2021/05/26 09:23:03;;;;;;;10.25;5.00;;;32.90;40.90;;;;;;4974390;28;20050;-82
2021/05/26 09:25:38;;;;;;;4.90;4.38;;;32.90;41.60;;;;;;4978492;28;20358;-84
2021/05/26 09:28:18;;;;;;;9.68;4.68;;;33.00;41.30;;;;;;4976255;28;20030;-84
2021/05/26 09:30:49;;;;;;;5.28;4.70;;;32.80;41.20;;;;;;4974028;28;20038;-83
2021/05/26 09:33:31;;;;;;;9.73;5.20;;;32.50;41.80;;;;;;4975585;28;20023;-85
2021/05/26 09:36:11;;;;;;;20.70;12.25;;;32.30;42.30;;;;;;4974758;28;20031;-82
2021/05/26 09:38:41;;;;;;;6.55;4.93;;;32.10;42.70;;;;;;4975093;28;20033;-83
2021/05/26 09:41:11;;;;;;;6.53;4.57;;;32.10;43.00;;;;;;4975667;28;20034;-83
2021/05/26 09:43:48;;;;;;;7.28;4.80;;;32.00;43.30;;;;;;4975881;28;20027;-84
2021/05/26 09:46:21;;;;;;;7.55;4.90;;;32.10;43.20;;;;;;4974981;28;20113;-84
2021/05/26 09:49:05;;;;;;;9.40;4.38;;;32.10;42.70;;;;;;4974635;28;20034;-82
2021/05/26 09:51:35;;;;;;;7.22;4.35;;;32.00;42.30;;;;;;4974782;28;20146;-82
2021/05/26 09:54:37;;;;;;;5.57;4.50;;;32.00;42.30;;;;;;4975156;28;20030;-85
2021/05/26 09:57:03;;;;;;;11.82;4.88;;;31.80;42.40;;;;;;4976938;28;20484;-82
2021/05/26 09:59:31;;;;;;;6.40;4.90;;;31.90;42.80;;;;;;4981575;28;20037;-82
2021/05/26 10:01:58;;;;;;;8.50;5.10;;;31.70;42.80;;;;;;4987284;28;20031;-82
2021/05/26 10:04:24;;;;;;;13.98;5.60;;;31.50;43.10;;;;;;4986420;28;20015;-84
2021/05/26 10:06:53;;;;;;;7.22;5.03;;;31.20;43.80;;;;;;4981636;28;20022;-83
2021/05/26 10:09:23;;;;;;;11.70;5.15;;;31.00;44.40;;;;;;4976796;28;20462;-83
2021/05/26 10:11:53;;;;;;;5.20;4.70;;;30.90;44.90;;;;;;4977408;28;20026;-82
2021/05/26 10:14:21;;;;;;;8.20;5.13;;;31.00;44.50;;;;;;4976256;28;20500;-82
2021/05/26 10:16:51;;;;;;;8.73;7.07;;;31.00;44.20;;;;;;4974614;28;20034;-85
2021/05/26 10:19:17;;;;;;;8.35;4.72;;;31.00;44.00;;;;;;4975237;28;20541;-83
2021/05/26 10:21:46;;;;;;;7.90;4.63;;;30.90;44.10;;;;;;4974625;28;20035;-83
2021/05/26 10:24:19;;;;;;;10.07;4.78;;;30.90;44.00;;;;;;4972467;28;20113;-83
2021/05/26 10:27:00;;;;;;;11.05;5.28;;;30.90;44.20;;;;;;4974454;28;20503;-83
2021/05/26 10:29:29;;;;;;;10.80;5.28;;;30.90;44.30;;;;;;4955540;29;20426;-83
2021/05/26 10:31:59;;;;;;;5.20;4.68;;;31.00;44.20;;;;;;4954720;29;20063;-82
2021/05/26 10:34:43;;;;;;;8.23;6.43;;;30.90;44.00;;;;;;4970452;28;20453;-82
2021/05/26 10:37:10;;;;;;;6.63;5.13;;;30.90;43.90;;;;;;4959182;29;20023;-82
2021/05/26 10:39:36;;;;;;;8.05;4.60;;;30.90;44.50;;;;;;4957240;29;20078;-82
2021/05/26 10:42:03;;;;;;;5.88;4.63;;;31.00;44.30;;;;;;4955166;28;20029;-82
2021/05/26 10:44:54;;;;;;;7.15;5.13;;;31.00;43.90;;;;;;4955246;28;20051;-83
2021/05/26 10:47:42;;;;;;;6.95;4.60;;;30.80;44.00;;;;;;4954304;29;20026;-81
2021/05/26 10:50:24;;;;;;;5.07;4.57;;;30.70;44.40;;;;;;4954542;28;20060;-83
2021/05/26 10:52:56;;;;;;;6.90;4.95;;;30.50;44.10;;;;;;4954828;28;20087;-84
2021/05/26 10:55:34;;;;;;;;;;;30.30;44.50;;;;;;4954063;29;20023;-83
2021/05/26 10:58:17;;;;;;;12.02;5.88;;;30.10;44.40;;;;;;4953992;28;19918;-83
2021/05/26 11:01:03;;;;;;;11.32;4.85;;;30.10;45.30;;;;;;4968554;28;20042;-83
2021/05/26 11:03:34;;;;;;;8.35;4.40;;;30.10;44.90;;;;;;4946591;28;20098;-84
2021/05/26 11:06:13;;;;;;;11.35;4.78;;;30.10;45.00;;;;;;4953769;28;20027;-82
2021/05/26 11:08:48;;;;;;;8.10;4.72;;;30.00;44.90;;;;;;4953557;29;20027;-82
2021/05/26 11:11:27;;;;;;;9.45;5.47;;;30.00;44.70;;;;;;4953180;29;20082;-84
2021/05/26 11:14:13;;;;;;;7.63;4.63;;;30.00;45.10;;;;;;4959705;28;20423;-80
2021/05/26 11:16:45;;;;;;;9.32;4.55;;;29.90;44.90;;;;;;4953818;28;20035;-81
2021/05/26 11:19:18;;;;;;;6.10;4.65;;;29.80;44.70;;;;;;4954909;29;20517;-82
2021/05/26 11:22:02;;;;;;;8.52;4.30;;;29.70;45.00;;;;;;4960198;28;20065;-82
2021/05/26 11:24:50;;;;;;;10.20;4.60;;;29.50;44.60;;;;;;4976049;28;20062;-82
2021/05/26 11:27:23;;;;;;;4.40;4.00;;;29.50;44.40;;;;;;4962168;28;20024;-82
2021/05/26 11:29:55;;;;;;;5.25;3.70;;;29.50;44.30;;;;;;4956602;28;20043;-84
2021/05/26 11:32:23;;;;;;;5.38;3.78;;;29.60;44.20;;;;;;4953305;28;20415;-76
2021/05/26 11:34:51;;;;;;;9.95;4.13;;;29.70;44.20;;;;;;4952837;28;20020;-72
2021/05/26 11:37:28;;;;;;;8.68;3.90;;;29.70;43.80;;;;;;4952697;28;20406;-72
2021/05/26 11:39:55;;;;;;;5.00;4.25;;;29.70;43.60;;;;;;4952618;29;20063;-73
2021/05/26 11:42:29;;;;;;;3.95;3.33;;;29.80;44.00;;;;;;4952632;28;20371;-73
2021/05/26 11:45:04;;;;;;;5.93;3.53;;;29.90;43.50;;;;;;4952654;29;20406;-73
2021/05/26 11:47:37;;;;;;;5.50;3.65;;;29.90;43.30;;;;;;4952849;28;20472;-72
2021/05/26 11:50:15;;;;;;;6.03;3.47;;;29.90;43.30;;;;;;4952351;29;20102;-73
2021/05/26 11:52:42;;;;;;;6.43;3.83;;;29.80;43.20;;;;;;4952799;28;20473;-73
2021/05/26 11:55:09;;;;;;;6.70;3.63;;;29.70;43.30;;;;;;4955868;28;20031;-72
2021/05/26 11:57:35;;;;;;;5.13;3.75;;;29.60;43.50;;;;;;4956019;28;20115;-71
2021/05/26 12:00:04;;;;;;;5.55;3.75;;;29.50;43.10;;;;;;4956051;29;20304;-72
2021/05/26 12:02:30;;;;;;;3.60;3.15;;;29.50;43.30;;;;;;4956042;28;20094;-72
2021/05/26 12:04:57;;;;;;;3.17;2.65;;;29.40;42.50;;;;;;4956168;29;20031;-73
2021/05/26 12:07:27;;;;;;;7.68;3.95;;;29.40;41.80;;;;;;4954969;29;20031;-74
2021/05/26 12:09:58;;;;;;;5.95;3.33;;;29.20;41.50;;;;;;4956048;28;20027;-73
2021/05/26 12:12:24;;;;;;;3.93;3.13;;;29.10;41.90;;;;;;4956141;28;20063;-73
2021/05/26 12:14:51;;;;;;;3.47;2.97;;;28.80;41.70;;;;;;4955977;28;20046;-74
2021/05/26 12:17:21;;;;;;;3.40;3.10;;;28.60;41.80;;;;;;4955481;28;20114;-72
2021/05/26 12:19:48;;;;;;;3.53;3.22;;;28.50;42.70;;;;;;4955917;28;20035;-72
2021/05/26 12:22:19;;;;;;;5.20;3.33;;;28.40;42.30;;;;;;4955953;29;20023;-72
2021/05/26 12:24:58;;;;;;;5.05;3.20;;;28.40;42.90;;;;;;4955640;28;20030;-72
2021/05/26 12:27:30;;;;;;;4.50;3.25;;;28.40;43.00;;;;;;4955759;28;20445;-73
2021/05/26 12:30:29;;;;;;;5.88;3.03;;;28.30;43.20;;;;;;4955495;29;20047;-73
2021/05/26 12:32:56;;;;;;;6.28;2.90;;;28.40;43.00;;;;;;4955098;28;20051;-73
2021/05/26 12:35:27;;;;;;;5.28;3.30;;;28.40;42.70;;;;;;4955485;28;20020;-72
2021/05/26 12:37:55;;;;;;;5.25;2.88;;;28.40;42.60;;;;;;4955359;28;20079;-73
2021/05/26 12:40:27;;;;;;;6.63;3.78;;;28.50;43.20;;;;;;4955119;28;20130;-73
2021/05/26 12:42:54;;;;;;;5.25;2.67;;;28.60;43.50;;;;;;4955669;29;20045;-74
2021/05/26 12:45:29;;;;;;;5.22;3.53;;;28.60;43.40;;;;;;4955784;28;20386;-72
2021/05/26 12:48:16;;;;;;;6.70;2.90;;;28.70;43.40;;;;;;4955598;28;20022;-73
2021/05/26 12:50:43;;;;;;;6.55;2.95;;;28.70;43.70;;;;;;4955138;28;20053;-72